sensor_id;sensor_type;location;lat;lon;timestamp;P1;durP1;ratioP1;P2;durP2;ratioP2
18818;SDS011;9537;45.594;9.294;2022-09-30T00:00:46;3.67;;;2.83;;
18818;SDS011;9537;45.594;9.294;2022-09-30T00:01:48;3.87;;;2.90;;
18818;SDS011;9537;45.594;9.294;2022-09-30T00:02:50;3.83;;;3.00;;
18818;SDS011;9537;45.594;9.294;2022-09-30T00:03:52;4.17;;;2.80;;
18818;SDS011;9537;45.594;9.294;2022-09-30T00:04:56;2.73;;;2.53;;
18818;SDS011;9537;45.594;9.294;2022-09-30T00:05:58;3.23;;;2.33;;
18818;SDS011;9537;45.594;9.294;2022-09-30T00:07:00;2.90;;;2.70;;
18818;SDS011;9537;45.594;9.294;2022-09-30T00:08:02;3.80;;;2.80;;
18818;SDS011;9537;45.594;9.294;2022-09-30T00:09:03;2.90;;;2.53;;
18818;SDS011;9537;45.594;9.294;2022-09-30T00:10:06;3.50;;;2.87;;
18818;SDS011;9537;45.594;9.294;2022-09-30T00:11:08;3.20;;;2.70;;
18818;SDS011;9537;45.594;9.294;2022-09-30T00:12:13;2.87;;;2.63;;
18818;SDS011;9537;45.594;9.294;2022-09-30T00:13:14;3.30;;;2.80;;
18818;SDS011;9537;45.594;9.294;2022-09-30T00:14:17;3.80;;;3.00;;
18818;SDS011;9537;45.594;9.294;2022-09-30T00:15:19;4.43;;;3.43;;
18818;SDS011;9537;45.594;9.294;2022-09-30T00:16:22;3.47;;;3.00;;
18818;SDS011;9537;45.594;9.294;2022-09-30T00:17:23;3.33;;;2.80;;
18818;SDS011;9537;45.594;9.294;2022-09-30T00:18:27;3.30;;;2.90;;
18818;SDS011;9537;45.594;9.294;2022-09-30T00:19:28;3.33;;;2.60;;
18818;SDS011;9537;45.594;9.294;2022-09-30T00:20:33;3.40;;;2.80;;
18818;SDS011;9537;45.594;9.294;2022-09-30T00:21:34;2.93;;;2.63;;
18818;SDS011;9537;45.594;9.294;2022-09-30T00:22:36;3.37;;;2.50;;
18818;SDS011;9537;45.594;9.294;2022-09-30T00:23:37;3.60;;;2.90;;
18818;SDS011;9537;45.594;9.294;2022-09-30T00:24:40;3.47;;;3.10;;
18818;SDS011;9537;45.594;9.294;2022-09-30T00:25:42;3.50;;;2.90;;
18818;SDS011;9537;45.594;9.294;2022-09-30T00:26:44;5.10;;;3.20;;
18818;SDS011;9537;45.594;9.294;2022-09-30T00:27:46;4.13;;;2.97;;
18818;SDS011;9537;45.594;9.294;2022-09-30T00:28:48;7.00;;;2.93;;
18818;SDS011;9537;45.594;9.294;2022-09-30T00:29:52;3.50;;;2.83;;
18818;SDS011;9537;45.594;9.294;2022-09-30T00:30:53;4.67;;;3.30;;
18818;SDS011;9537;45.594;9.294;2022-09-30T00:31:58;6.10;;;3.77;;
18818;SDS011;9537;45.594;9.294;2022-09-30T00:32:59;6.20;;;3.40;;
18818;SDS011;9537;45.594;9.294;2022-09-30T00:34:02;4.27;;;2.93;;
18818;SDS011;9537;45.594;9.294;2022-09-30T00:35:06;6.10;;;3.47;;
18818;SDS011;9537;45.594;9.294;2022-09-30T00:36:09;5.87;;;3.30;;
18818;SDS011;9537;45.594;9.294;2022-09-30T00:37:11;4.00;;;3.50;;
18818;SDS011;9537;45.594;9.294;2022-09-30T00:38:14;4.70;;;3.43;;
18818;SDS011;9537;45.594;9.294;2022-09-30T00:39:16;11.60;;;3.50;;
18818;SDS011;9537;45.594;9.294;2022-09-30T00:40:20;3.53;;;2.80;;
18818;SDS011;9537;45.594;9.294;2022-09-30T00:41:21;5.07;;;3.53;;
18818;SDS011;9537;45.594;9.294;2022-09-30T00:42:24;3.57;;;3.20;;
18818;SDS011;9537;45.594;9.294;2022-09-30T00:43:38;4.27;;;2.73;;
18818;SDS011;9537;45.594;9.294;2022-09-30T00:44:43;3.67;;;3.10;;
18818;SDS011;9537;45.594;9.294;2022-09-30T00:45:51;3.10;;;2.67;;
18818;SDS011;9537;45.594;9.294;2022-09-30T00:46:58;3.30;;;3.00;;
18818;SDS011;9537;45.594;9.294;2022-09-30T00:48:00;3.30;;;2.93;;
18818;SDS011;9537;45.594;9.294;2022-09-30T00:49:10;3.67;;;3.23;;
18818;SDS011;9537;45.594;9.294;2022-09-30T00:50:26;6.77;;;3.20;;
18818;SDS011;9537;45.594;9.294;2022-09-30T00:51:34;3.60;;;3.20;;
18818;SDS011;9537;45.594;9.294;2022-09-30T00:52:38;4.93;;;3.60;;
18818;SDS011;9537;45.594;9.294;2022-09-30T00:53:42;3.83;;;3.10;;
18818;SDS011;9537;45.594;9.294;2022-09-30T00:54:49;5.57;;;2.93;;
18818;SDS011;9537;45.594;9.294;2022-09-30T00:55:54;3.30;;;2.80;;
18818;SDS011;9537;45.594;9.294;2022-09-30T00:57:01;3.47;;;3.10;;
18818;SDS011;9537;45.594;9.294;2022-09-30T00:58:04;5.47;;;3.03;;
18818;SDS011;9537;45.594;9.294;2022-09-30T00:59:09;5.70;;;3.13;;
18818;SDS011;9537;45.594;9.294;2022-09-30T01:00:17;4.73;;;3.17;;
18818;SDS011;9537;45.594;9.294;2022-09-30T01:01:27;4.63;;;3.27;;
18818;SDS011;9537;45.594;9.294;2022-09-30T01:02:31;4.30;;;3.60;;
18818;SDS011;9537;45.594;9.294;2022-09-30T01:03:34;3.57;;;3.07;;
18818;SDS011;9537;45.594;9.294;2022-09-30T01:04:38;5.30;;;3.30;;
18818;SDS011;9537;45.594;9.294;2022-09-30T01:05:42;3.67;;;3.20;;
18818;SDS011;9537;45.594;9.294;2022-09-30T01:06:46;4.67;;;2.90;;
18818;SDS011;9537;45.594;9.294;2022-09-30T01:07:47;6.30;;;2.90;;
18818;SDS011;9537;45.594;9.294;2022-09-30T01:08:50;4.57;;;3.07;;
18818;SDS011;9537;45.594;9.294;2022-09-30T01:09:52;3.47;;;2.80;;
18818;SDS011;9537;45.594;9.294;2022-09-30T01:10:54;7.20;;;2.90;;
18818;SDS011;9537;45.594;9.294;2022-09-30T01:11:56;3.37;;;2.90;;
18818;SDS011;9537;45.594;9.294;2022-09-30T01:12:57;3.77;;;3.30;;
18818;SDS011;9537;45.594;9.294;2022-09-30T01:14:00;5.03;;;3.10;;
18818;SDS011;9537;45.594;9.294;2022-09-30T01:15:04;3.97;;;2.97;;
18818;SDS011;9537;45.594;9.294;2022-09-30T01:16:15;4.17;;;3.03;;
18818;SDS011;9537;45.594;9.294;2022-09-30T01:17:26;3.30;;;3.00;;
18818;SDS011;9537;45.594;9.294;2022-09-30T01:18:41;3.63;;;3.00;;
18818;SDS011;9537;45.594;9.294;2022-09-30T01:19:59;5.27;;;3.33;;
18818;SDS011;9537;45.594;9.294;2022-09-30T01:21:25;3.47;;;3.17;;
18818;SDS011;9537;45.594;9.294;2022-09-30T01:22:44;4.60;;;3.03;;
18818;SDS011;9537;45.594;9.294;2022-09-30T01:24:06;3.33;;;3.03;;
18818;SDS011;9537;45.594;9.294;2022-09-30T01:26:58;5.00;;;2.73;;
18818;SDS011;9537;45.594;9.294;2022-09-30T01:28:15;2.83;;;2.53;;
18818;SDS011;9537;45.594;9.294;2022-09-30T01:29:53;3.60;;;2.90;;
18818;SDS011;9537;45.594;9.294;2022-09-30T01:32:39;2.70;;;2.50;;
18818;SDS011;9537;45.594;9.294;2022-09-30T01:33:54;4.50;;;2.90;;
18818;SDS011;9537;45.594;9.294;2022-09-30T01:35:03;3.23;;;2.93;;
18818;SDS011;9537;45.594;9.294;2022-09-30T01:36:21;5.90;;;3.20;;
18818;SDS011;9537;45.594;9.294;2022-09-30T01:37:31;3.63;;;2.90;;
18818;SDS011;9537;45.594;9.294;2022-09-30T01:38:44;4.53;;;3.00;;
18818;SDS011;9537;45.594;9.294;2022-09-30T01:39:56;4.07;;;2.67;;
18818;SDS011;9537;45.594;9.294;2022-09-30T01:41:05;3.30;;;2.87;;
18818;SDS011;9537;45.594;9.294;2022-09-30T01:42:12;5.03;;;3.00;;
18818;SDS011;9537;45.594;9.294;2022-09-30T01:43:21;6.00;;;3.07;;
18818;SDS011;9537;45.594;9.294;2022-09-30T01:44:31;3.40;;;2.93;;
18818;SDS011;9537;45.594;9.294;2022-09-30T01:45:38;3.53;;;2.90;;
18818;SDS011;9537;45.594;9.294;2022-09-30T01:46:49;3.23;;;2.60;;
18818;SDS011;9537;45.594;9.294;2022-09-30T01:47:55;4.23;;;3.13;;
18818;SDS011;9537;45.594;9.294;2022-09-30T01:49:02;4.07;;;2.80;;
18818;SDS011;9537;45.594;9.294;2022-09-30T01:50:14;6.10;;;3.10;;
18818;SDS011;9537;45.594;9.294;2022-09-30T01:51:23;4.67;;;3.10;;
18818;SDS011;9537;45.594;9.294;2022-09-30T01:52:31;2.97;;;2.73;;
18818;SDS011;9537;45.594;9.294;2022-09-30T01:53:39;3.37;;;2.73;;
18818;SDS011;9537;45.594;9.294;2022-09-30T01:54:46;3.40;;;3.10;;
18818;SDS011;9537;45.594;9.294;2022-09-30T01:55:55;5.70;;;3.47;;
18818;SDS011;9537;45.594;9.294;2022-09-30T01:57:02;4.83;;;3.17;;
18818;SDS011;9537;45.594;9.294;2022-09-30T01:58:10;3.57;;;2.80;;
18818;SDS011;9537;45.594;9.294;2022-09-30T01:59:18;4.30;;;2.87;;
18818;SDS011;9537;45.594;9.294;2022-09-30T02:00:22;3.87;;;3.10;;
18818;SDS011;9537;45.594;9.294;2022-09-30T02:01:26;5.77;;;3.17;;
18818;SDS011;9537;45.594;9.294;2022-09-30T02:02:32;4.50;;;3.37;;
18818;SDS011;9537;45.594;9.294;2022-09-30T02:03:42;3.60;;;3.30;;
18818;SDS011;9537;45.594;9.294;2022-09-30T02:04:49;2.93;;;2.73;;
18818;SDS011;9537;45.594;9.294;2022-09-30T02:05:55;3.83;;;3.00;;
18818;SDS011;9537;45.594;9.294;2022-09-30T02:07:03;4.13;;;3.30;;
18818;SDS011;9537;45.594;9.294;2022-09-30T02:08:09;4.30;;;3.00;;
18818;SDS011;9537;45.594;9.294;2022-09-30T02:09:17;5.80;;;3.20;;
18818;SDS011;9537;45.594;9.294;2022-09-30T02:10:26;3.43;;;3.13;;
18818;SDS011;9537;45.594;9.294;2022-09-30T02:11:31;4.70;;;3.00;;
18818;SDS011;9537;45.594;9.294;2022-09-30T02:12:36;3.70;;;2.90;;
18818;SDS011;9537;45.594;9.294;2022-09-30T02:13:42;2.97;;;2.67;;
18818;SDS011;9537;45.594;9.294;2022-09-30T02:14:49;3.70;;;2.90;;
18818;SDS011;9537;45.594;9.294;2022-09-30T02:15:56;3.63;;;3.23;;
18818;SDS011;9537;45.594;9.294;2022-09-30T02:17:02;3.37;;;3.03;;
18818;SDS011;9537;45.594;9.294;2022-09-30T02:18:11;4.57;;;2.87;;
18818;SDS011;9537;45.594;9.294;2022-09-30T02:19:20;5.17;;;2.80;;
18818;SDS011;9537;45.594;9.294;2022-09-30T02:20:29;6.27;;;2.97;;
18818;SDS011;9537;45.594;9.294;2022-09-30T02:21:34;4.77;;;3.20;;
18818;SDS011;9537;45.594;9.294;2022-09-30T02:22:41;5.60;;;3.30;;
18818;SDS011;9537;45.594;9.294;2022-09-30T02:23:46;5.67;;;2.97;;
18818;SDS011;9537;45.594;9.294;2022-09-30T02:24:54;4.17;;;3.30;;
18818;SDS011;9537;45.594;9.294;2022-09-30T02:26:00;5.63;;;3.33;;
18818;SDS011;9537;45.594;9.294;2022-09-30T02:27:07;3.07;;;2.73;;
18818;SDS011;9537;45.594;9.294;2022-09-30T02:28:15;4.50;;;3.40;;
18818;SDS011;9537;45.594;9.294;2022-09-30T02:29:21;7.03;;;3.10;;
18818;SDS011;9537;45.594;9.294;2022-09-30T02:30:26;3.03;;;2.73;;
18818;SDS011;9537;45.594;9.294;2022-09-30T02:31:29;4.03;;;2.97;;
18818;SDS011;9537;45.594;9.294;2022-09-30T02:32:36;3.30;;;2.90;;
18818;SDS011;9537;45.594;9.294;2022-09-30T02:33:45;4.33;;;2.77;;
18818;SDS011;9537;45.594;9.294;2022-09-30T02:34:51;3.97;;;2.73;;
18818;SDS011;9537;45.594;9.294;2022-09-30T02:35:58;11.30;;;3.10;;
18818;SDS011;9537;45.594;9.294;2022-09-30T02:37:06;3.43;;;2.70;;
18818;SDS011;9537;45.594;9.294;2022-09-30T02:38:14;3.70;;;3.30;;
18818;SDS011;9537;45.594;9.294;2022-09-30T02:39:20;3.20;;;2.90;;
18818;SDS011;9537;45.594;9.294;2022-09-30T02:40:34;5.47;;;3.20;;
18818;SDS011;9537;45.594;9.294;2022-09-30T02:41:41;3.63;;;2.87;;
18818;SDS011;9537;45.594;9.294;2022-09-30T02:42:49;6.90;;;2.67;;
18818;SDS011;9537;45.594;9.294;2022-09-30T02:43:50;4.63;;;2.80;;
18818;SDS011;9537;45.594;9.294;2022-09-30T02:44:54;3.80;;;2.50;;
18818;SDS011;9537;45.594;9.294;2022-09-30T02:46:03;3.40;;;3.10;;
18818;SDS011;9537;45.594;9.294;2022-09-30T02:47:10;2.93;;;2.50;;
18818;SDS011;9537;45.594;9.294;2022-09-30T02:48:17;2.60;;;2.40;;
18818;SDS011;9537;45.594;9.294;2022-09-30T02:49:30;3.40;;;2.60;;
18818;SDS011;9537;45.594;9.294;2022-09-30T02:50:42;6.17;;;2.90;;
18818;SDS011;9537;45.594;9.294;2022-09-30T02:51:52;3.13;;;2.53;;
18818;SDS011;9537;45.594;9.294;2022-09-30T02:53:06;3.17;;;2.70;;
18818;SDS011;9537;45.594;9.294;2022-09-30T02:54:18;3.73;;;2.40;;
18818;SDS011;9537;45.594;9.294;2022-09-30T02:55:30;3.83;;;2.60;;
18818;SDS011;9537;45.594;9.294;2022-09-30T02:56:39;2.67;;;2.43;;
18818;SDS011;9537;45.594;9.294;2022-09-30T02:57:52;3.70;;;2.90;;
18818;SDS011;9537;45.594;9.294;2022-09-30T02:59:00;3.17;;;2.57;;
18818;SDS011;9537;45.594;9.294;2022-09-30T03:00:02;3.93;;;2.67;;
18818;SDS011;9537;45.594;9.294;2022-09-30T03:01:05;4.03;;;2.53;;
18818;SDS011;9537;45.594;9.294;2022-09-30T03:02:09;3.17;;;2.70;;
18818;SDS011;9537;45.594;9.294;2022-09-30T03:03:13;2.80;;;2.50;;
18818;SDS011;9537;45.594;9.294;2022-09-30T03:04:20;3.53;;;2.70;;
18818;SDS011;9537;45.594;9.294;2022-09-30T03:05:27;3.93;;;2.83;;
18818;SDS011;9537;45.594;9.294;2022-09-30T03:06:28;2.67;;;2.23;;
18818;SDS011;9537;45.594;9.294;2022-09-30T03:07:30;3.07;;;2.30;;
18818;SDS011;9537;45.594;9.294;2022-09-30T03:08:33;3.30;;;2.93;;
18818;SDS011;9537;45.594;9.294;2022-09-30T03:09:35;3.13;;;2.50;;
18818;SDS011;9537;45.594;9.294;2022-09-30T03:10:36;2.33;;;2.03;;
18818;SDS011;9537;45.594;9.294;2022-09-30T03:11:39;4.07;;;2.50;;
18818;SDS011;9537;45.594;9.294;2022-09-30T03:12:43;3.30;;;2.17;;
18818;SDS011;9537;45.594;9.294;2022-09-30T03:14:19;3.37;;;2.53;;
18818;SDS011;9537;45.594;9.294;2022-09-30T03:15:45;3.07;;;2.20;;
18818;SDS011;9537;45.594;9.294;2022-09-30T03:17:05;4.97;;;2.63;;
18818;SDS011;9537;45.594;9.294;2022-09-30T03:18:36;3.13;;;2.23;;
18818;SDS011;9537;45.594;9.294;2022-09-30T03:19:52;2.63;;;2.30;;
18818;SDS011;9537;45.594;9.294;2022-09-30T03:21:09;2.70;;;2.03;;
18818;SDS011;9537;45.594;9.294;2022-09-30T03:22:27;3.13;;;2.10;;
18818;SDS011;9537;45.594;9.294;2022-09-30T03:23:55;2.40;;;2.07;;
18818;SDS011;9537;45.594;9.294;2022-09-30T03:25:20;2.63;;;2.23;;
18818;SDS011;9537;45.594;9.294;2022-09-30T03:26:32;1.67;;;1.53;;
18818;SDS011;9537;45.594;9.294;2022-09-30T03:27:43;2.60;;;1.83;;
18818;SDS011;9537;45.594;9.294;2022-09-30T03:29:01;1.87;;;1.77;;
18818;SDS011;9537;45.594;9.294;2022-09-30T03:30:14;4.43;;;1.70;;
18818;SDS011;9537;45.594;9.294;2022-09-30T03:31:21;2.10;;;1.90;;
18818;SDS011;9537;45.594;9.294;2022-09-30T03:32:34;3.13;;;1.80;;
18818;SDS011;9537;45.594;9.294;2022-09-30T03:33:54;2.30;;;2.00;;
18818;SDS011;9537;45.594;9.294;2022-09-30T03:35:02;1.97;;;1.87;;
18818;SDS011;9537;45.594;9.294;2022-09-30T03:36:18;1.90;;;1.57;;
18818;SDS011;9537;45.594;9.294;2022-09-30T03:37:29;2.00;;;1.70;;
18818;SDS011;9537;45.594;9.294;2022-09-30T03:38:36;3.67;;;2.00;;
18818;SDS011;9537;45.594;9.294;2022-09-30T03:39:49;5.00;;;1.83;;
18818;SDS011;9537;45.594;9.294;2022-09-30T03:40:57;2.30;;;1.60;;
18818;SDS011;9537;45.594;9.294;2022-09-30T03:42:06;5.47;;;3.20;;
18818;SDS011;9537;45.594;9.294;2022-09-30T03:43:15;2.83;;;1.90;;
18818;SDS011;9537;45.594;9.294;2022-09-30T03:44:27;2.87;;;2.10;;
18818;SDS011;9537;45.594;9.294;2022-09-30T03:45:37;2.97;;;1.77;;
18818;SDS011;9537;45.594;9.294;2022-09-30T03:46:42;2.70;;;1.90;;
18818;SDS011;9537;45.594;9.294;2022-09-30T03:47:48;3.70;;;2.67;;
18818;SDS011;9537;45.594;9.294;2022-09-30T03:48:54;2.40;;;1.67;;
18818;SDS011;9537;45.594;9.294;2022-09-30T03:49:59;2.33;;;1.70;;
18818;SDS011;9537;45.594;9.294;2022-09-30T03:51:04;3.83;;;1.67;;
18818;SDS011;9537;45.594;9.294;2022-09-30T03:52:09;3.70;;;1.60;;
18818;SDS011;9537;45.594;9.294;2022-09-30T03:53:13;2.70;;;1.80;;
18818;SDS011;9537;45.594;9.294;2022-09-30T03:54:14;4.20;;;1.73;;
18818;SDS011;9537;45.594;9.294;2022-09-30T03:55:17;1.67;;;1.57;;
18818;SDS011;9537;45.594;9.294;2022-09-30T03:56:23;1.80;;;1.70;;
18818;SDS011;9537;45.594;9.294;2022-09-30T03:57:26;2.37;;;1.80;;
18818;SDS011;9537;45.594;9.294;2022-09-30T03:58:28;2.33;;;1.60;;
18818;SDS011;9537;45.594;9.294;2022-09-30T03:59:30;1.70;;;1.60;;
18818;SDS011;9537;45.594;9.294;2022-09-30T04:00:32;1.60;;;1.50;;
18818;SDS011;9537;45.594;9.294;2022-09-30T04:01:34;2.27;;;1.47;;
18818;SDS011;9537;45.594;9.294;2022-09-30T04:02:36;2.03;;;1.50;;
18818;SDS011;9537;45.594;9.294;2022-09-30T04:03:37;2.30;;;1.60;;
18818;SDS011;9537;45.594;9.294;2022-09-30T04:04:39;2.47;;;1.90;;
18818;SDS011;9537;45.594;9.294;2022-09-30T04:05:41;2.83;;;1.60;;
18818;SDS011;9537;45.594;9.294;2022-09-30T04:06:43;2.67;;;1.80;;
18818;SDS011;9537;45.594;9.294;2022-09-30T04:07:46;2.37;;;1.60;;
18818;SDS011;9537;45.594;9.294;2022-09-30T04:08:48;2.03;;;1.67;;
18818;SDS011;9537;45.594;9.294;2022-09-30T04:09:50;2.53;;;1.47;;
18818;SDS011;9537;45.594;9.294;2022-09-30T04:10:52;2.77;;;1.97;;
18818;SDS011;9537;45.594;9.294;2022-09-30T04:11:53;3.20;;;1.77;;
18818;SDS011;9537;45.594;9.294;2022-09-30T04:12:55;2.03;;;1.83;;
18818;SDS011;9537;45.594;9.294;2022-09-30T04:13:57;1.80;;;1.70;;
18818;SDS011;9537;45.594;9.294;2022-09-30T04:15:00;3.47;;;2.03;;
18818;SDS011;9537;45.594;9.294;2022-09-30T04:16:01;2.20;;;1.73;;
18818;SDS011;9537;45.594;9.294;2022-09-30T04:17:04;5.73;;;1.80;;
18818;SDS011;9537;45.594;9.294;2022-09-30T04:18:05;3.10;;;1.83;;
18818;SDS011;9537;45.594;9.294;2022-09-30T04:19:07;4.17;;;1.80;;
18818;SDS011;9537;45.594;9.294;2022-09-30T04:20:08;1.90;;;1.80;;
18818;SDS011;9537;45.594;9.294;2022-09-30T04:21:12;1.83;;;1.63;;
18818;SDS011;9537;45.594;9.294;2022-09-30T04:22:14;2.30;;;1.73;;
18818;SDS011;9537;45.594;9.294;2022-09-30T04:23:18;1.93;;;1.70;;
18818;SDS011;9537;45.594;9.294;2022-09-30T04:24:19;2.60;;;1.70;;
18818;SDS011;9537;45.594;9.294;2022-09-30T04:25:21;2.43;;;1.90;;
18818;SDS011;9537;45.594;9.294;2022-09-30T04:26:22;3.00;;;2.00;;
18818;SDS011;9537;45.594;9.294;2022-09-30T04:27:24;2.00;;;1.80;;
18818;SDS011;9537;45.594;9.294;2022-09-30T04:28:26;2.27;;;2.00;;
18818;SDS011;9537;45.594;9.294;2022-09-30T04:29:28;1.90;;;1.80;;
18818;SDS011;9537;45.594;9.294;2022-09-30T04:30:31;2.87;;;1.90;;
18818;SDS011;9537;45.594;9.294;2022-09-30T04:31:32;2.70;;;1.77;;
18818;SDS011;9537;45.594;9.294;2022-09-30T04:32:34;4.87;;;1.63;;
18818;SDS011;9537;45.594;9.294;2022-09-30T04:33:35;1.87;;;1.57;;
18818;SDS011;9537;45.594;9.294;2022-09-30T04:34:37;2.30;;;1.70;;
18818;SDS011;9537;45.594;9.294;2022-09-30T04:35:38;2.23;;;1.90;;
18818;SDS011;9537;45.594;9.294;2022-09-30T04:36:40;1.87;;;1.60;;
18818;SDS011;9537;45.594;9.294;2022-09-30T04:37:41;3.40;;;1.70;;
18818;SDS011;9537;45.594;9.294;2022-09-30T04:38:45;2.70;;;1.60;;
18818;SDS011;9537;45.594;9.294;2022-09-30T04:39:46;2.40;;;1.80;;
18818;SDS011;9537;45.594;9.294;2022-09-30T04:40:49;1.87;;;1.70;;
18818;SDS011;9537;45.594;9.294;2022-09-30T04:41:50;2.00;;;1.67;;
18818;SDS011;9537;45.594;9.294;2022-09-30T04:42:54;3.33;;;1.87;;
18818;SDS011;9537;45.594;9.294;2022-09-30T04:43:57;4.50;;;2.13;;
18818;SDS011;9537;45.594;9.294;2022-09-30T04:44:59;2.13;;;1.60;;
18818;SDS011;9537;45.594;9.294;2022-09-30T04:46:00;2.97;;;2.10;;
18818;SDS011;9537;45.594;9.294;2022-09-30T04:47:03;2.50;;;2.27;;
18818;SDS011;9537;45.594;9.294;2022-09-30T04:48:04;3.00;;;1.87;;
18818;SDS011;9537;45.594;9.294;2022-09-30T04:49:06;3.63;;;2.40;;
18818;SDS011;9537;45.594;9.294;2022-09-30T04:50:08;3.90;;;2.60;;
18818;SDS011;9537;45.594;9.294;2022-09-30T04:51:10;3.87;;;2.60;;
18818;SDS011;9537;45.594;9.294;2022-09-30T04:52:11;3.07;;;2.57;;
18818;SDS011;9537;45.594;9.294;2022-09-30T04:53:13;3.77;;;2.40;;
18818;SDS011;9537;45.594;9.294;2022-09-30T04:54:16;3.63;;;2.60;;
18818;SDS011;9537;45.594;9.294;2022-09-30T04:55:18;3.93;;;2.67;;
18818;SDS011;9537;45.594;9.294;2022-09-30T04:56:19;3.93;;;2.70;;
18818;SDS011;9537;45.594;9.294;2022-09-30T04:57:22;3.10;;;2.60;;
18818;SDS011;9537;45.594;9.294;2022-09-30T04:58:24;3.97;;;2.60;;
18818;SDS011;9537;45.594;9.294;2022-09-30T04:59:25;2.80;;;2.50;;
18818;SDS011;9537;45.594;9.294;2022-09-30T05:00:28;5.13;;;2.80;;
18818;SDS011;9537;45.594;9.294;2022-09-30T05:01:29;3.53;;;2.70;;
18818;SDS011;9537;45.594;9.294;2022-09-30T05:02:32;3.43;;;2.47;;
18818;SDS011;9537;45.594;9.294;2022-09-30T05:03:33;2.77;;;2.17;;
18818;SDS011;9537;45.594;9.294;2022-09-30T05:04:35;3.40;;;2.83;;
18818;SDS011;9537;45.594;9.294;2022-09-30T05:05:36;3.73;;;2.57;;
18818;SDS011;9537;45.594;9.294;2022-09-30T05:06:38;2.60;;;2.37;;
18818;SDS011;9537;45.594;9.294;2022-09-30T05:07:40;3.30;;;2.50;;
18818;SDS011;9537;45.594;9.294;2022-09-30T05:08:42;3.33;;;2.53;;
18818;SDS011;9537;45.594;9.294;2022-09-30T05:09:44;3.47;;;2.70;;
18818;SDS011;9537;45.594;9.294;2022-09-30T05:10:51;3.00;;;2.70;;
18818;SDS011;9537;45.594;9.294;2022-09-30T05:11:54;3.20;;;2.53;;
18818;SDS011;9537;45.594;9.294;2022-09-30T05:12:56;2.53;;;2.33;;
18818;SDS011;9537;45.594;9.294;2022-09-30T05:13:57;2.97;;;2.53;;
18818;SDS011;9537;45.594;9.294;2022-09-30T05:15:00;3.13;;;2.60;;
18818;SDS011;9537;45.594;9.294;2022-09-30T05:16:01;3.80;;;2.87;;
18818;SDS011;9537;45.594;9.294;2022-09-30T05:17:04;3.30;;;2.70;;
18818;SDS011;9537;45.594;9.294;2022-09-30T05:18:06;3.80;;;2.50;;
18818;SDS011;9537;45.594;9.294;2022-09-30T05:19:07;4.60;;;2.40;;
18818;SDS011;9537;45.594;9.294;2022-09-30T05:20:09;4.20;;;2.67;;
18818;SDS011;9537;45.594;9.294;2022-09-30T05:21:10;3.97;;;2.53;;
18818;SDS011;9537;45.594;9.294;2022-09-30T05:22:13;4.10;;;2.73;;
18818;SDS011;9537;45.594;9.294;2022-09-30T05:23:15;5.00;;;2.73;;
18818;SDS011;9537;45.594;9.294;2022-09-30T05:24:17;4.97;;;3.10;;
18818;SDS011;9537;45.594;9.294;2022-09-30T05:25:21;3.37;;;2.60;;
18818;SDS011;9537;45.594;9.294;2022-09-30T05:26:23;4.87;;;3.00;;
18818;SDS011;9537;45.594;9.294;2022-09-30T05:27:28;3.00;;;2.70;;
18818;SDS011;9537;45.594;9.294;2022-09-30T05:28:31;3.27;;;2.60;;
18818;SDS011;9537;45.594;9.294;2022-09-30T05:29:33;3.87;;;3.00;;
18818;SDS011;9537;45.594;9.294;2022-09-30T05:30:34;3.93;;;2.80;;
18818;SDS011;9537;45.594;9.294;2022-09-30T05:31:37;4.40;;;3.17;;
18818;SDS011;9537;45.594;9.294;2022-09-30T05:32:38;5.10;;;3.27;;
18818;SDS011;9537;45.594;9.294;2022-09-30T05:33:40;4.20;;;2.87;;
18818;SDS011;9537;45.594;9.294;2022-09-30T05:34:41;4.50;;;2.57;;
18818;SDS011;9537;45.594;9.294;2022-09-30T05:35:43;3.93;;;2.97;;
18818;SDS011;9537;45.594;9.294;2022-09-30T05:36:44;4.07;;;3.00;;
18818;SDS011;9537;45.594;9.294;2022-09-30T05:37:46;4.77;;;3.00;;
18818;SDS011;9537;45.594;9.294;2022-09-30T05:38:49;3.77;;;2.80;;
18818;SDS011;9537;45.594;9.294;2022-09-30T05:39:51;3.47;;;2.63;;
18818;SDS011;9537;45.594;9.294;2022-09-30T05:40:55;3.20;;;2.47;;
18818;SDS011;9537;45.594;9.294;2022-09-30T05:41:57;2.83;;;2.30;;
18818;SDS011;9537;45.594;9.294;2022-09-30T05:42:58;4.30;;;2.70;;
18818;SDS011;9537;45.594;9.294;2022-09-30T05:44:01;3.40;;;2.23;;
18818;SDS011;9537;45.594;9.294;2022-09-30T05:45:02;3.87;;;2.30;;
18818;SDS011;9537;45.594;9.294;2022-09-30T05:46:04;3.37;;;2.60;;
18818;SDS011;9537;45.594;9.294;2022-09-30T05:47:06;3.23;;;2.40;;
18818;SDS011;9537;45.594;9.294;2022-09-30T05:48:11;3.63;;;2.60;;
18818;SDS011;9537;45.594;9.294;2022-09-30T05:49:12;3.73;;;2.10;;
18818;SDS011;9537;45.594;9.294;2022-09-30T05:50:14;2.30;;;2.10;;
18818;SDS011;9537;45.594;9.294;2022-09-30T05:51:15;3.17;;;1.90;;
18818;SDS011;9537;45.594;9.294;2022-09-30T05:52:17;3.80;;;2.10;;
18818;SDS011;9537;45.594;9.294;2022-09-30T05:53:19;2.27;;;2.07;;
18818;SDS011;9537;45.594;9.294;2022-09-30T05:54:21;3.30;;;2.37;;
18818;SDS011;9537;45.594;9.294;2022-09-30T05:55:23;2.37;;;1.83;;
18818;SDS011;9537;45.594;9.294;2022-09-30T05:56:25;3.90;;;2.30;;
18818;SDS011;9537;45.594;9.294;2022-09-30T05:57:28;2.93;;;2.13;;
18818;SDS011;9537;45.594;9.294;2022-09-30T05:58:29;3.33;;;2.40;;
18818;SDS011;9537;45.594;9.294;2022-09-30T05:59:31;2.40;;;2.00;;
18818;SDS011;9537;45.594;9.294;2022-09-30T06:00:33;2.43;;;2.20;;
18818;SDS011;9537;45.594;9.294;2022-09-30T06:01:35;2.80;;;2.13;;
18818;SDS011;9537;45.594;9.294;2022-09-30T06:02:37;3.67;;;1.83;;
18818;SDS011;9537;45.594;9.294;2022-09-30T06:03:39;2.90;;;1.90;;
18818;SDS011;9537;45.594;9.294;2022-09-30T06:04:41;2.10;;;1.80;;
18818;SDS011;9537;45.594;9.294;2022-09-30T06:05:42;2.43;;;1.63;;
18818;SDS011;9537;45.594;9.294;2022-09-30T06:06:45;2.33;;;1.80;;
18818;SDS011;9537;45.594;9.294;2022-09-30T06:07:48;3.77;;;2.20;;
18818;SDS011;9537;45.594;9.294;2022-09-30T06:08:50;3.90;;;1.80;;
18818;SDS011;9537;45.594;9.294;2022-09-30T06:09:52;3.60;;;1.77;;
18818;SDS011;9537;45.594;9.294;2022-09-30T06:10:56;1.80;;;1.57;;
18818;SDS011;9537;45.594;9.294;2022-09-30T06:12:00;3.63;;;1.47;;
18818;SDS011;9537;45.594;9.294;2022-09-30T06:13:02;1.70;;;1.60;;
18818;SDS011;9537;45.594;9.294;2022-09-30T06:14:04;2.00;;;1.70;;
18818;SDS011;9537;45.594;9.294;2022-09-30T06:15:08;2.50;;;1.50;;
18818;SDS011;9537;45.594;9.294;2022-09-30T06:16:10;1.83;;;1.40;;
18818;SDS011;9537;45.594;9.294;2022-09-30T06:17:13;1.57;;;1.27;;
18818;SDS011;9537;45.594;9.294;2022-09-30T06:18:18;1.43;;;1.33;;
18818;SDS011;9537;45.594;9.294;2022-09-30T06:19:21;3.13;;;1.60;;
18818;SDS011;9537;45.594;9.294;2022-09-30T06:20:22;2.70;;;1.60;;
18818;SDS011;9537;45.594;9.294;2022-09-30T06:21:24;2.37;;;1.63;;
18818;SDS011;9537;45.594;9.294;2022-09-30T06:22:25;2.00;;;1.00;;
18818;SDS011;9537;45.594;9.294;2022-09-30T06:23:28;1.70;;;1.60;;
18818;SDS011;9537;45.594;9.294;2022-09-30T06:24:29;1.90;;;1.40;;
18818;SDS011;9537;45.594;9.294;2022-09-30T06:25:32;3.00;;;1.47;;
18818;SDS011;9537;45.594;9.294;2022-09-30T06:26:33;1.83;;;1.40;;
18818;SDS011;9537;45.594;9.294;2022-09-30T06:27:37;1.50;;;1.27;;
18818;SDS011;9537;45.594;9.294;2022-09-30T06:28:38;1.10;;;1.00;;
18818;SDS011;9537;45.594;9.294;2022-09-30T06:29:41;1.50;;;1.40;;
18818;SDS011;9537;45.594;9.294;2022-09-30T06:30:43;2.73;;;1.40;;
18818;SDS011;9537;45.594;9.294;2022-09-30T06:31:46;2.90;;;1.30;;
18818;SDS011;9537;45.594;9.294;2022-09-30T06:32:47;2.90;;;1.67;;
18818;SDS011;9537;45.594;9.294;2022-09-30T06:33:51;1.83;;;1.20;;
18818;SDS011;9537;45.594;9.294;2022-09-30T06:34:52;3.23;;;1.60;;
18818;SDS011;9537;45.594;9.294;2022-09-30T06:35:56;1.50;;;1.40;;
18818;SDS011;9537;45.594;9.294;2022-09-30T06:36:57;2.60;;;1.80;;
18818;SDS011;9537;45.594;9.294;2022-09-30T06:38:01;1.57;;;1.30;;
18818;SDS011;9537;45.594;9.294;2022-09-30T06:39:03;1.30;;;1.20;;
18818;SDS011;9537;45.594;9.294;2022-09-30T06:40:05;1.20;;;1.10;;
18818;SDS011;9537;45.594;9.294;2022-09-30T06:41:07;1.60;;;1.27;;
18818;SDS011;9537;45.594;9.294;2022-09-30T06:42:10;1.53;;;1.43;;